Terminal Aerodrome Forecast
Issued by NWS

Home | Current Version | Previous Version | Text Only | Print | Product List | Glossary On
Versions: 1 2 3 4 5 6 7 8 9 10 11 12 13 14 15 16
111
FTUS46 KSGX 162322
TAFONT
TAF
KONT 162322Z 1700/1806 26010KT P6SM SCT180
     FM170200 VRB06KT P6SM FEW180
     FM170500 VRB06KT P6SM SKC WS010/05035KT
     FM170700 05015G25KT P6SM SKC
     FM171400 05025G38KT P6SM SKC
     FM171900 05015G25KT P6SM SKC
     FM180000 05010KT P6SM SKC=

USA.gov is the U.S. government's official web portal to all federal, state and local government web resources and services.